createdAt,value
2019-05-15T00:01:19.230Z,1.63
2019-05-15T00:03:49.255Z,1.80
2019-05-15T00:06:19.085Z,1.70
2019-05-15T00:08:48.241Z,1.90
2019-05-15T00:11:19.040Z,1.50
2019-05-15T00:13:48.375Z,2.07
2019-05-15T00:16:17.998Z,1.77
2019-05-15T00:18:48.190Z,1.90
2019-05-15T00:21:18.008Z,1.80
2019-05-15T00:23:49.257Z,1.63
2019-05-15T00:26:20.241Z,1.60
2019-05-15T00:28:48.805Z,1.53
2019-05-15T00:31:18.626Z,1.70
2019-05-15T00:33:48.256Z,1.73
2019-05-15T00:36:19.254Z,1.77
2019-05-15T00:38:48.315Z,1.50
2019-05-15T00:41:18.497Z,1.70
2019-05-15T00:43:49.324Z,1.70
2019-05-15T00:46:18.307Z,1.53
2019-05-15T00:48:48.732Z,1.50
2019-05-15T00:51:19.579Z,1.83
2019-05-15T00:53:48.398Z,1.70
2019-05-15T00:56:19.434Z,1.80
2019-05-15T00:58:48.253Z,1.50
2019-05-15T01:01:19.085Z,1.53
2019-05-15T01:03:49.175Z,1.70
2019-05-15T01:06:19.053Z,1.53
2019-05-15T01:08:48.266Z,1.80
2019-05-15T01:11:19.025Z,1.57
2019-05-15T01:13:48.155Z,1.70
2019-05-15T01:16:18.618Z,1.87
2019-05-15T01:18:48.977Z,1.70
2019-05-15T01:21:18.759Z,1.80
2019-05-15T01:23:48.380Z,1.63
2019-05-15T01:26:18.922Z,1.63
2019-05-15T01:28:49.437Z,1.60
2019-05-15T01:31:19.057Z,1.47
2019-05-15T01:33:48.092Z,1.50
2019-05-15T01:36:19.113Z,1.53
2019-05-15T01:38:48.067Z,1.63
2019-05-15T01:41:18.737Z,1.47
2019-05-15T01:43:48.910Z,1.50
2019-05-15T01:46:19.052Z,1.53
2019-05-15T01:48:49.272Z,1.57
2019-05-15T01:51:18.499Z,1.50
2019-05-15T01:53:48.192Z,1.50
2019-05-15T01:56:18.817Z,1.70
2019-05-15T01:58:48.718Z,1.40
2019-05-15T02:01:19.143Z,1.60
2019-05-15T02:03:49.271Z,1.70
2019-05-15T02:06:18.990Z,1.80
2019-05-15T02:08:49.643Z,1.40
2019-05-15T02:11:18.159Z,1.80
2019-05-15T02:13:48.026Z,1.70
2019-05-15T02:16:19.209Z,1.50
2019-05-15T02:18:49.066Z,1.50
2019-05-15T02:21:18.324Z,1.60
2019-05-15T02:23:48.125Z,1.53
2019-05-15T02:26:18.864Z,1.70
2019-05-15T02:28:48.796Z,1.50
2019-05-15T02:31:19.560Z,1.50
2019-05-15T02:33:49.823Z,1.70
2019-05-15T02:36:20.614Z,1.63
2019-05-15T02:38:48.770Z,1.60
2019-05-15T02:41:19.542Z,1.70
2019-05-15T02:43:50.072Z,1.70
2019-05-15T02:46:19.439Z,1.57
2019-05-15T02:48:48.918Z,1.77
2019-05-15T02:51:19.416Z,1.40
2019-05-15T02:53:50.152Z,1.60
2019-05-15T02:56:20.423Z,1.30
2019-05-15T02:58:49.376Z,1.57
2019-05-15T03:01:18.895Z,1.80
2019-05-15T03:03:49.839Z,1.50
2019-05-15T03:06:19.260Z,1.50
2019-05-15T03:08:49.559Z,1.30
2019-05-15T03:11:19.120Z,1.50
2019-05-15T03:13:50.302Z,1.60
2019-05-15T03:16:19.363Z,1.70
2019-05-15T03:18:50.470Z,1.50
2019-05-15T03:21:18.893Z,1.50
2019-05-15T03:23:50.557Z,1.73
2019-05-15T03:26:19.697Z,1.50
2019-05-15T03:28:49.625Z,1.50
2019-05-15T03:31:40.797Z,1.60
2019-05-15T03:33:53.718Z,1.70
2019-05-15T03:36:23.402Z,1.90
2019-05-15T03:38:49.928Z,1.50
2019-05-15T03:41:19.801Z,1.50
2019-05-15T03:43:49.625Z,1.60
2019-05-15T03:46:20.002Z,1.90
2019-05-15T03:48:48.855Z,1.80
2019-05-15T03:51:19.950Z,1.60
2019-05-15T03:53:49.743Z,1.80
2019-05-15T03:56:19.065Z,1.40
2019-05-15T03:58:49.319Z,1.57
2019-05-15T04:01:29.786Z,1.40
2019-05-15T04:03:49.746Z,1.43
2019-05-15T04:06:19.426Z,1.60
2019-05-15T04:08:49.593Z,1.40
2019-05-15T04:11:20.260Z,1.30
2019-05-15T04:13:49.962Z,1.30
2019-05-15T04:16:19.253Z,1.50
2019-05-15T04:18:49.092Z,1.40
2019-05-15T04:21:20.041Z,1.30
2019-05-15T04:23:49.916Z,1.30
2019-05-15T04:26:20.300Z,1.50
2019-05-15T04:28:49.901Z,1.40
2019-05-15T04:31:19.440Z,1.50
2019-05-15T04:33:49.143Z,1.30
2019-05-15T04:36:19.189Z,1.40
2019-05-15T04:38:50.017Z,1.20
2019-05-15T04:41:19.745Z,1.53
2019-05-15T04:43:49.402Z,1.53
2019-05-15T04:46:19.899Z,1.30
2019-05-15T04:48:50.160Z,1.30
2019-05-15T04:51:19.939Z,1.20
2019-05-15T04:53:50.223Z,1.30
2019-05-15T04:56:19.434Z,1.23
2019-05-15T04:58:50.703Z,1.40
2019-05-15T05:01:20.451Z,1.30
2019-05-15T05:03:49.706Z,1.10
2019-05-15T05:06:19.117Z,1.30
2019-05-15T05:08:49.060Z,1.37
2019-05-15T05:11:19.772Z,1.40
2019-05-15T05:13:48.574Z,1.23
2019-05-15T05:16:19.158Z,1.27
2019-05-15T05:18:48.820Z,1.40
2019-05-15T05:21:18.439Z,1.20
2019-05-15T05:23:48.337Z,1.20
2019-05-15T05:26:18.625Z,1.10
2019-05-15T05:28:48.809Z,1.20
2019-05-15T05:31:19.086Z,1.10
2019-05-15T05:33:48.690Z,0.90
2019-05-15T05:36:18.535Z,1.03
2019-05-15T05:38:49.374Z,0.93
2019-05-15T05:41:19.003Z,1.03
2019-05-15T05:43:48.723Z,1.57
2019-05-15T05:46:18.387Z,1.10
2019-05-15T05:48:48.879Z,1.00
2019-05-15T05:51:19.109Z,1.27
2019-05-15T05:53:48.070Z,0.90
2019-05-15T05:56:18.114Z,0.90
2019-05-15T05:58:49.244Z,0.97
2019-05-15T06:01:18.770Z,1.73
2019-05-15T06:03:49.091Z,0.90
2019-05-15T06:06:18.584Z,1.63
2019-05-15T06:08:48.075Z,1.03
2019-05-15T06:11:18.378Z,1.20
2019-05-15T06:13:52.195Z,1.07
2019-05-15T06:16:19.008Z,1.10
2019-05-15T06:18:49.255Z,1.10
2019-05-15T06:21:18.977Z,0.87
2019-05-15T06:23:54.587Z,1.00
2019-05-15T06:26:19.666Z,0.90
2019-05-15T06:28:48.962Z,1.20
2019-05-15T06:31:18.986Z,1.20
2019-05-15T06:33:49.092Z,1.97
2019-05-15T06:36:19.612Z,0.90
2019-05-15T06:38:48.489Z,1.00
2019-05-15T06:41:18.129Z,0.70
2019-05-15T06:43:48.423Z,0.70
2019-05-15T06:46:18.742Z,0.63
2019-05-15T06:48:48.630Z,0.67
2019-05-15T06:51:18.188Z,0.73
2019-05-15T06:53:49.132Z,0.93
2019-05-15T06:56:18.830Z,0.90
2019-05-15T06:58:48.796Z,0.97
2019-05-15T07:01:18.877Z,0.87
2019-05-15T07:03:48.413Z,1.10
2019-05-15T07:06:18.135Z,0.60
2019-05-15T07:08:49.577Z,0.80
2019-05-15T07:11:19.054Z,0.70
2019-05-15T07:13:48.616Z,0.70
2019-05-15T07:16:18.198Z,1.00
2019-05-15T07:18:48.556Z,1.13
2019-05-15T07:21:20.253Z,0.90
2019-05-15T07:23:49.606Z,0.90
2019-05-15T07:26:18.306Z,0.90
2019-05-15T07:28:48.638Z,1.10
2019-05-15T07:31:18.046Z,0.87
2019-05-15T07:33:48.863Z,0.80
2019-05-15T07:36:19.306Z,0.60
2019-05-15T07:38:48.488Z,0.80
2019-05-15T07:41:18.501Z,0.83
2019-05-15T07:43:49.458Z,0.50
2019-05-15T07:46:18.494Z,0.97
2019-05-15T07:48:49.048Z,0.80
2019-05-15T07:51:18.086Z,0.80
2019-05-15T07:53:49.002Z,0.80
2019-05-15T07:56:18.174Z,0.60
2019-05-15T07:58:52.109Z,0.50
2019-05-15T08:01:18.545Z,0.60
2019-05-15T08:03:56.527Z,0.80
2019-05-15T08:06:18.034Z,0.70
2019-05-15T08:08:48.570Z,0.70
2019-05-15T08:11:21.925Z,0.80
2019-05-15T08:13:48.644Z,0.77
2019-05-15T08:16:18.098Z,1.40
2019-05-15T08:18:48.417Z,0.60
2019-05-15T08:21:18.555Z,0.60
2019-05-15T08:23:48.498Z,1.40
2019-05-15T08:26:17.851Z,1.33
2019-05-15T08:28:48.526Z,1.20
2019-05-15T08:31:18.358Z,1.10
2019-05-15T08:33:48.291Z,1.17
2019-05-15T08:36:18.400Z,1.13
2019-05-15T08:38:48.626Z,0.87
2019-05-15T08:41:18.519Z,0.83
2019-05-15T08:43:48.641Z,1.03
2019-05-15T08:46:18.656Z,0.90
2019-05-15T08:48:49.069Z,0.80
2019-05-15T08:51:19.334Z,0.90
2019-05-15T08:53:48.814Z,0.83
2019-05-15T08:56:19.436Z,1.43
2019-05-15T08:58:48.650Z,0.70
2019-05-15T09:01:18.293Z,1.00
2019-05-15T09:03:48.941Z,0.80
2019-05-15T09:06:20.583Z,0.70
2019-05-15T09:08:49.114Z,0.90
2019-05-15T09:11:19.298Z,1.20
2019-05-15T09:13:53.642Z,1.10
2019-05-15T09:16:18.583Z,0.77
2019-05-15T09:18:48.568Z,0.83
2019-05-15T09:21:19.137Z,1.10
2019-05-15T09:23:49.881Z,1.37
2019-05-15T09:26:19.487Z,0.83
2019-05-15T09:28:49.366Z,1.23
2019-05-15T09:31:19.288Z,0.80
2019-05-15T09:33:49.330Z,0.80
2019-05-15T09:36:20.182Z,1.00
2019-05-15T09:38:49.141Z,1.10
2019-05-15T09:41:17.961Z,1.33
2019-05-15T09:43:48.370Z,1.10
2019-05-15T09:46:18.507Z,1.30
2019-05-15T09:48:51.451Z,1.30
2019-05-15T09:51:18.314Z,1.00
2019-05-15T09:53:48.420Z,1.00
2019-05-15T09:56:18.656Z,0.90
2019-05-15T09:58:48.947Z,3.60
2019-05-15T10:01:19.637Z,1.57
2019-05-15T10:03:48.595Z,2.20
2019-05-15T10:06:20.095Z,2.43
2019-05-15T10:08:48.925Z,1.53
2019-05-15T10:11:19.568Z,1.10
2019-05-15T10:13:48.001Z,0.80
2019-05-15T10:16:19.539Z,3.53
2019-05-15T10:18:50.959Z,1.73
2019-05-15T10:21:18.604Z,2.40
2019-05-15T10:23:49.053Z,1.20
2019-05-15T10:26:19.341Z,1.00
2019-05-15T10:28:49.349Z,1.13
2019-05-15T10:31:19.556Z,0.97
2019-05-15T10:33:49.138Z,1.20
2019-05-15T10:36:18.956Z,0.80
2019-05-15T10:38:48.873Z,1.10
2019-05-15T10:41:18.846Z,1.90
2019-05-15T10:43:55.877Z,1.63
2019-05-15T10:46:19.030Z,1.70
2019-05-15T10:48:49.230Z,1.13
2019-05-15T10:51:19.512Z,0.90
2019-05-15T10:53:48.908Z,1.13
2019-05-15T10:56:18.539Z,1.17
2019-05-15T10:58:50.150Z,1.43
2019-05-15T11:01:19.234Z,1.23
2019-05-15T11:03:49.532Z,0.90
2019-05-15T11:06:18.525Z,1.33
2019-05-15T11:08:51.105Z,1.10
2019-05-15T11:11:19.096Z,1.00
2019-05-15T11:13:47.593Z,1.00
2019-05-15T11:16:20.777Z,1.20
2019-05-15T11:18:48.183Z,1.13
2019-05-15T11:21:18.922Z,0.80
2019-05-15T11:23:49.425Z,0.80
2019-05-15T11:26:19.382Z,0.80
2019-05-15T11:28:49.804Z,1.67
2019-05-15T11:31:18.021Z,0.90
2019-05-15T11:33:49.083Z,0.83
2019-05-15T11:36:18.528Z,0.70
2019-05-15T11:38:48.637Z,1.10
2019-05-15T11:41:19.158Z,1.20
2019-05-15T11:43:49.525Z,1.10
2019-05-15T11:46:20.542Z,1.53
2019-05-15T11:48:49.749Z,1.00
2019-05-15T11:52:04.501Z,1.10
2019-05-15T11:54:33.025Z,1.90
2019-05-15T11:57:01.557Z,2.07
2019-05-15T12:00:30.022Z,2.10
2019-05-15T12:03:38.447Z,1.57
2019-05-15T12:06:15.882Z,1.00
2019-05-15T12:08:38.511Z,1.00
2019-05-15T12:11:11.939Z,4.77
2019-05-15T12:13:38.177Z,3.67
2019-05-15T12:16:06.801Z,2.00
2019-05-15T12:18:35.372Z,1.27
2019-05-15T12:21:04.178Z,0.90
2019-05-15T12:23:32.912Z,1.23
2019-05-15T12:26:01.642Z,1.17
2019-05-15T12:28:30.094Z,1.40
2019-05-15T12:30:59.794Z,1.20
2019-05-15T12:33:29.165Z,1.47
2019-05-15T12:35:57.882Z,1.70
2019-05-15T12:38:28.842Z,1.50
2019-05-15T13:01:14.753Z,1.70
2019-05-15T13:06:22.788Z,1.50
2019-05-15T13:08:54.448Z,1.30
2019-05-15T13:11:22.978Z,2.00
2019-05-15T13:13:52.439Z,2.20
2019-05-15T13:16:20.974Z,1.90
2019-05-15T13:18:49.415Z,1.83
2019-05-15T13:21:20.858Z,1.60
2019-05-15T13:23:48.365Z,2.73
2019-05-15T13:26:23.677Z,2.30
2019-05-15T13:28:48.830Z,2.60
2019-05-15T13:31:19.083Z,2.50
2019-05-15T13:33:48.233Z,1.97
2019-05-15T13:36:19.699Z,1.63
2019-05-15T13:38:48.265Z,2.20
2019-05-15T13:41:19.013Z,3.03
2019-05-15T13:43:49.227Z,2.70
2019-05-15T13:46:20.588Z,1.60
2019-05-15T13:48:50.048Z,2.83
2019-05-15T13:51:18.547Z,3.63
2019-05-15T13:53:49.071Z,3.00
2019-05-15T13:56:18.306Z,2.27
2019-05-15T13:58:48.106Z,2.20
2019-05-15T14:01:19.417Z,5.63
2019-05-15T14:03:48.333Z,6.73
2019-05-15T14:06:19.166Z,5.43
2019-05-15T14:08:48.769Z,4.40
2019-05-15T14:11:21.484Z,3.03
2019-05-15T14:13:49.954Z,1.77
2019-05-15T14:16:19.457Z,3.47
2019-05-15T14:18:48.070Z,2.30
2019-05-15T14:21:18.435Z,1.83
2019-05-15T14:23:47.918Z,1.70
2019-05-15T14:26:22.410Z,1.20
2019-05-15T14:28:48.155Z,2.17
2019-05-15T14:31:18.288Z,6.37
2019-05-15T14:33:48.775Z,6.80
2019-05-15T14:36:18.417Z,4.10
2019-05-15T14:38:48.474Z,2.20
2019-05-15T14:41:18.997Z,6.00
2019-05-15T14:43:48.438Z,2.63
2019-05-15T14:46:18.523Z,2.70
2019-05-15T14:48:49.100Z,1.40
2019-05-15T14:51:19.286Z,1.50
2019-05-15T14:53:49.136Z,1.53
2019-05-15T14:56:18.575Z,1.27
2019-05-15T14:58:48.026Z,1.33
2019-05-15T15:01:18.514Z,1.63
2019-05-15T15:03:48.847Z,1.53
2019-05-15T15:06:18.175Z,1.80
2019-05-15T15:08:48.670Z,1.37
2019-05-15T15:11:17.940Z,1.30
2019-05-15T15:13:46.779Z,1.40
2019-05-15T15:16:15.217Z,1.70
2019-05-15T15:18:43.771Z,2.17
2019-05-15T15:21:12.186Z,1.40
2019-05-15T15:23:40.639Z,1.60
2019-05-15T15:26:09.708Z,2.00
2019-05-15T15:28:40.271Z,1.70
2019-05-15T15:31:08.341Z,1.60
2019-05-15T15:33:39.009Z,1.63
2019-05-15T15:36:08.804Z,2.40
2019-05-15T15:38:43.700Z,1.40
2019-05-15T15:41:08.563Z,1.30
2019-05-15T15:43:38.728Z,1.50
2019-05-15T15:46:08.590Z,2.00
2019-05-15T15:48:39.167Z,1.40
2019-05-15T15:51:09.098Z,3.27
2019-05-15T15:53:39.060Z,1.70
2019-05-15T15:56:10.333Z,2.87
2019-05-15T15:58:38.137Z,2.60
2019-05-15T16:01:08.859Z,1.90
2019-05-15T16:03:38.056Z,1.50
2019-05-15T16:06:06.827Z,4.57
2019-05-15T16:08:49.275Z,3.10
2019-05-15T16:11:05.521Z,4.10
2019-05-15T16:13:34.071Z,3.20
2019-05-15T16:16:02.537Z,3.10
2019-05-15T16:18:31.029Z,2.60
2019-05-15T16:20:59.421Z,2.40
2019-05-15T16:23:28.349Z,2.90
2019-05-15T16:25:58.303Z,4.33
2019-05-15T16:28:28.961Z,4.87
2019-05-15T16:30:58.515Z,3.07
2019-05-15T16:33:28.344Z,4.87
2019-05-15T16:35:58.084Z,4.27
2019-05-15T16:38:28.395Z,4.83
2019-05-15T16:40:58.227Z,4.20
2019-05-15T16:43:28.729Z,4.00
2019-05-15T16:45:58.746Z,3.97
2019-05-15T16:48:29.430Z,3.90
2019-05-15T16:50:58.158Z,4.07
2019-05-15T16:53:28.829Z,4.50
2019-05-15T16:55:58.652Z,4.90
2019-05-15T16:58:29.687Z,5.07
2019-05-15T17:00:58.610Z,4.53
2019-05-15T17:03:28.938Z,2.90
2019-05-15T17:05:58.721Z,3.53
2019-05-15T17:08:32.247Z,4.40
2019-05-15T17:11:00.659Z,2.30
2019-05-15T17:13:29.221Z,5.37
2019-05-15T17:15:58.396Z,3.60
2019-05-15T17:18:27.112Z,3.20
2019-05-15T17:20:55.541Z,4.97
2019-05-15T17:23:24.119Z,3.77
2019-05-15T17:25:52.882Z,3.80
2019-05-15T17:28:22.731Z,3.40
2019-05-15T17:30:51.883Z,4.10
2019-05-15T17:33:20.361Z,3.13
2019-05-15T17:35:49.899Z,3.00
2019-05-15T17:38:19.601Z,3.00
2019-05-15T17:40:48.583Z,4.20
2019-05-15T17:43:18.247Z,3.90
2019-05-15T17:45:48.232Z,3.50
2019-05-15T17:48:19.395Z,3.50
2019-05-15T17:50:52.182Z,2.50
2019-05-15T17:53:18.134Z,2.40
2019-05-15T17:55:48.139Z,2.33
2019-05-15T17:58:16.837Z,2.27
2019-05-15T18:00:45.430Z,2.50
2019-05-15T18:03:14.153Z,2.40
2019-05-15T18:05:44.265Z,3.00
2019-05-15T18:08:13.992Z,2.70
2019-05-15T18:10:43.208Z,3.67
2019-05-15T18:13:12.478Z,3.50
2019-05-15T18:15:41.161Z,3.40
2019-05-15T18:18:09.957Z,3.97
2019-05-15T18:20:40.720Z,3.60
2019-05-15T18:23:09.235Z,3.13
2019-05-15T18:25:38.433Z,2.73
2019-05-15T18:28:08.522Z,2.07
2019-05-15T18:30:39.063Z,1.90
2019-05-15T18:33:08.608Z,1.70
2019-05-15T18:35:38.531Z,1.50
2019-05-15T18:38:09.411Z,1.60
2019-05-15T18:40:38.544Z,2.30
2019-05-15T18:43:10.037Z,2.20
2019-05-15T18:45:38.508Z,3.53
2019-05-15T18:48:08.101Z,3.83
2019-05-15T18:50:37.812Z,2.33
2019-05-15T18:53:08.906Z,2.50
2019-05-15T18:55:38.579Z,1.80
2019-05-15T18:58:08.780Z,1.80
2019-05-15T19:00:39.996Z,2.33
2019-05-15T19:03:18.757Z,2.30
2019-05-15T19:05:38.737Z,2.63
2019-05-15T19:08:08.421Z,2.30
2019-05-15T19:10:38.566Z,2.77
2019-05-15T19:13:08.554Z,2.30
2019-05-15T19:15:41.794Z,2.30
2019-05-15T19:18:11.112Z,2.40
2019-05-15T19:20:39.659Z,2.70
2019-05-15T19:23:26.689Z,2.20
2019-05-15T19:25:57.887Z,2.00
2019-05-15T19:28:28.584Z,2.37
2019-05-15T19:30:58.552Z,1.90
2019-05-15T19:33:37.071Z,2.10
2019-05-15T19:35:58.279Z,2.00
2019-05-15T19:38:27.951Z,1.70
2019-05-15T19:41:02.958Z,1.77
2019-05-15T19:43:29.796Z,4.33
2019-05-15T19:45:58.587Z,2.50
2019-05-15T19:48:27.195Z,2.00
2019-05-15T19:50:58.127Z,2.10
2019-05-15T19:53:47.865Z,2.07
2019-05-15T19:56:18.683Z,1.90
2019-05-15T19:58:46.826Z,1.90
2019-05-15T20:04:04.396Z,1.93
2019-05-15T20:06:33.021Z,1.63
2019-05-15T20:09:01.541Z,1.80
2019-05-15T20:11:32.395Z,1.50
2019-05-15T20:14:01.269Z,1.70
2019-05-15T20:16:31.249Z,1.50
2019-05-15T20:18:59.832Z,1.80
2019-05-15T20:21:29.051Z,1.87
2019-05-15T20:23:58.675Z,1.80
2019-05-15T20:26:28.657Z,1.60
2019-05-15T20:28:59.047Z,1.87
2019-05-15T20:31:28.408Z,1.80
2019-05-15T20:34:05.593Z,1.90
2019-05-15T20:36:29.442Z,2.10
2019-05-15T20:39:00.154Z,2.00
2019-05-15T20:41:28.637Z,1.80
2019-05-15T20:43:58.277Z,2.00
2019-05-15T20:46:28.889Z,2.00
2019-05-15T20:48:58.105Z,1.60
2019-05-15T20:51:29.026Z,2.00
2019-05-15T20:53:57.900Z,1.70
2019-05-15T20:56:28.268Z,1.97
2019-05-15T20:58:58.303Z,2.13
2019-05-15T21:01:29.112Z,2.30
2019-05-15T21:03:59.475Z,2.03
2019-05-15T21:06:28.364Z,2.10
2019-05-15T21:08:58.351Z,1.53
2019-05-15T21:11:29.697Z,1.60
2019-05-15T21:13:58.269Z,1.60
2019-05-15T21:16:29.060Z,1.30
2019-05-15T21:19:00.138Z,1.60
2019-05-15T21:21:28.311Z,1.30
2019-05-15T21:23:58.017Z,1.20
2019-05-15T21:26:29.121Z,1.50
2019-05-15T21:28:58.630Z,1.30
2019-05-15T21:31:28.384Z,1.30
2019-05-15T21:33:58.890Z,1.50
2019-05-15T21:36:28.197Z,1.50
2019-05-15T21:39:02.039Z,1.33
2019-05-15T21:41:33.615Z,1.63
2019-05-15T21:44:02.237Z,1.27
2019-05-15T21:46:30.679Z,1.20
2019-05-15T21:49:00.880Z,1.30
2019-05-15T21:51:30.562Z,1.40
2019-05-15T21:54:01.389Z,1.60
2019-05-15T21:56:29.805Z,1.20
2019-05-15T21:59:01.197Z,1.30
2019-05-15T22:01:29.181Z,1.27
2019-05-15T22:03:58.895Z,1.40
2019-05-15T22:06:29.278Z,1.13
2019-05-15T22:08:58.384Z,1.17
2019-05-15T22:11:29.621Z,1.10
2019-05-15T22:13:58.753Z,1.17
2019-05-15T22:16:28.843Z,1.13
2019-05-15T22:18:58.265Z,1.17
2019-05-15T22:21:27.047Z,1.50
2019-05-15T22:23:58.204Z,1.20
2019-05-15T22:26:28.466Z,1.20
2019-05-15T22:28:58.301Z,1.03
2019-05-15T22:31:26.382Z,1.10
2019-05-15T22:33:54.804Z,1.20
2019-05-15T22:36:23.359Z,1.10
2019-05-15T22:38:51.798Z,1.20
2019-05-15T22:41:20.180Z,1.30
2019-05-15T22:43:48.732Z,1.07
2019-05-15T22:46:18.631Z,1.17
2019-05-15T22:48:48.659Z,1.30
2019-05-15T22:51:18.369Z,1.20
2019-05-15T22:53:48.922Z,1.00
2019-05-15T22:56:18.230Z,1.10
2019-05-15T22:58:48.077Z,1.20
2019-05-15T23:01:18.842Z,1.20
2019-05-15T23:03:47.914Z,1.20
2019-05-15T23:06:17.823Z,1.20
2019-05-15T23:08:48.829Z,1.20
2019-05-15T23:11:18.279Z,1.27
2019-05-15T23:13:48.418Z,1.50
2019-05-15T23:16:18.226Z,1.10
2019-05-15T23:18:48.490Z,1.20
2019-05-15T23:21:18.283Z,1.27
2019-05-15T23:23:48.793Z,1.30
2019-05-15T23:26:17.287Z,1.10
2019-05-15T23:28:47.952Z,1.37
2019-05-15T23:31:15.967Z,1.47
2019-05-15T23:33:44.431Z,1.40
2019-05-15T23:36:12.834Z,1.40
2019-05-15T23:38:41.251Z,1.30
2019-05-15T23:41:09.815Z,1.10
2019-05-15T23:43:38.975Z,1.40
2019-05-15T23:46:08.048Z,1.30
2019-05-15T23:48:38.203Z,1.10
2019-05-15T23:51:08.533Z,1.20
2019-05-15T23:53:37.111Z,1.30
2019-05-15T23:56:09.353Z,1.30
2019-05-15T23:58:38.219Z,1.30
